sensor_id;sensor_type;location;lat;lon;timestamp;pressure;altitude;pressure_sealevel;temperature;humidity
64200;BME280;50516;52.272;5.136;2022-09-06T00:01:49;101647.22;;;21.63;71.29
64200;BME280;50516;52.272;5.136;2022-09-06T00:04:15;101648.53;;;21.74;70.63
64200;BME280;50516;52.272;5.136;2022-09-06T00:06:40;101656.59;;;21.58;71.17
64200;BME280;50516;52.272;5.136;2022-09-06T00:09:05;101642.78;;;21.62;71.06
64200;BME280;50516;52.272;5.136;2022-09-06T00:11:31;101650.00;;;21.63;71.10
64200;BME280;50516;52.272;5.136;2022-09-06T00:13:56;101646.06;;;21.55;71.02
64200;BME280;50516;52.272;5.136;2022-09-06T00:16:23;101638.97;;;21.49;71.38
64200;BME280;50516;52.272;5.136;2022-09-06T00:18:52;101630.75;;;21.35;71.78
64200;BME280;50516;52.272;5.136;2022-09-06T00:21:24;101628.75;;;21.44;71.69
64200;BME280;50516;52.272;5.136;2022-09-06T00:23:50;101631.72;;;21.39;71.24
64200;BME280;50516;52.272;5.136;2022-09-06T00:26:16;101632.25;;;21.50;70.70
64200;BME280;50516;52.272;5.136;2022-09-06T00:28:41;101633.56;;;21.61;70.61
64200;BME280;50516;52.272;5.136;2022-09-06T00:31:12;101624.88;;;21.63;70.74
64200;BME280;50516;52.272;5.136;2022-09-06T00:33:38;101620.25;;;21.67;71.07
64200;BME280;50516;52.272;5.136;2022-09-06T00:36:04;101619.78;;;21.56;71.94
64200;BME280;50516;52.272;5.136;2022-09-06T00:38:29;101616.31;;;21.59;71.73
64200;BME280;50516;52.272;5.136;2022-09-06T00:40:55;101630.91;;;21.47;72.99
64200;BME280;50516;52.272;5.136;2022-09-06T00:43:21;101638.78;;;21.37;73.28
64200;BME280;50516;52.272;5.136;2022-09-06T00:45:46;101640.25;;;21.34;74.24
64200;BME280;50516;52.272;5.136;2022-09-06T00:48:13;101646.81;;;21.21;74.51
64200;BME280;50516;52.272;5.136;2022-09-06T00:50:38;101648.16;;;21.32;74.09
64200;BME280;50516;52.272;5.136;2022-09-06T00:53:04;101638.28;;;21.34;74.14
64200;BME280;50516;52.272;5.136;2022-09-06T00:55:29;101641.09;;;21.43;73.99
64200;BME280;50516;52.272;5.136;2022-09-06T00:57:55;101652.06;;;21.31;74.45
64200;BME280;50516;52.272;5.136;2022-09-06T01:00:20;101659.16;;;21.28;74.75
64200;BME280;50516;52.272;5.136;2022-09-06T01:02:47;101665.72;;;21.32;74.98
64200;BME280;50516;52.272;5.136;2022-09-06T01:05:13;101676.25;;;21.36;75.09
64200;BME280;50516;52.272;5.136;2022-09-06T01:08:07;101673.13;;;21.37;75.33
64200;BME280;50516;52.272;5.136;2022-09-06T01:21:49;101620.22;;;21.32;75.41
64200;BME280;50516;52.272;5.136;2022-09-06T01:30:06;101626.78;;;21.27;75.88
64200;BME280;50516;52.272;5.136;2022-09-06T01:32:57;101634.66;;;21.34;76.00
64200;BME280;50516;52.272;5.136;2022-09-06T01:35:37;101625.28;;;21.30;76.15
64200;BME280;50516;52.272;5.136;2022-09-06T01:38:05;101624.47;;;21.29;76.02
64200;BME280;50516;52.272;5.136;2022-09-06T01:40:32;101620.84;;;21.20;76.22
64200;BME280;50516;52.272;5.136;2022-09-06T01:43:02;101619.69;;;21.21;76.19
64200;BME280;50516;52.272;5.136;2022-09-06T02:02:12;101575.34;;;21.11;75.97
64200;BME280;50516;52.272;5.136;2022-09-06T02:07:28;101548.22;;;21.11;75.53
64200;BME280;50516;52.272;5.136;2022-09-06T02:12:30;101533.44;;;21.02;75.78
64200;BME280;50516;52.272;5.136;2022-09-06T02:15:02;101533.28;;;20.98;76.16
64200;BME280;50516;52.272;5.136;2022-09-06T02:17:31;101521.78;;;20.91;76.12
64200;BME280;50516;52.272;5.136;2022-09-06T02:22:37;101512.25;;;20.92;75.29
64200;BME280;50516;52.272;5.136;2022-09-06T02:25:06;101508.47;;;20.97;74.81
64200;BME280;50516;52.272;5.136;2022-09-06T02:27:33;101510.47;;;20.96;74.90
64200;BME280;50516;52.272;5.136;2022-09-06T02:29:59;101507.00;;;21.00;74.68
64200;BME280;50516;52.272;5.136;2022-09-06T02:32:28;101500.91;;;20.97;74.50
64200;BME280;50516;52.272;5.136;2022-09-06T02:34:55;101508.81;;;21.04;74.27
64200;BME280;50516;52.272;5.136;2022-09-06T02:37:24;101510.94;;;21.07;74.25
64200;BME280;50516;52.272;5.136;2022-09-06T02:39:53;101505.72;;;21.06;73.99
64200;BME280;50516;52.272;5.136;2022-09-06T02:42:21;101507.16;;;21.03;74.12
64200;BME280;50516;52.272;5.136;2022-09-06T02:44:47;101511.94;;;21.03;74.20
64200;BME280;50516;52.272;5.136;2022-09-06T02:47:14;101509.16;;;21.03;74.34
64200;BME280;50516;52.272;5.136;2022-09-06T02:49:39;101495.19;;;21.03;74.14
64200;BME280;50516;52.272;5.136;2022-09-06T02:52:04;101496.34;;;21.02;74.22
64200;BME280;50516;52.272;5.136;2022-09-06T02:54:30;101496.34;;;21.02;73.78
64200;BME280;50516;52.272;5.136;2022-09-06T02:56:55;101503.72;;;21.06;73.74
64200;BME280;50516;52.272;5.136;2022-09-06T02:59:21;101507.97;;;21.04;74.20
64200;BME280;50516;52.272;5.136;2022-09-06T03:01:46;101511.75;;;20.90;74.70
64200;BME280;50516;52.272;5.136;2022-09-06T03:04:11;101517.34;;;20.90;74.96
64200;BME280;50516;52.272;5.136;2022-09-06T03:06:37;101520.75;;;20.70;75.42
64200;BME280;50516;52.272;5.136;2022-09-06T03:09:02;101516.81;;;20.71;76.11
64200;BME280;50516;52.272;5.136;2022-09-06T03:11:28;101523.69;;;20.65;76.67
64200;BME280;50516;52.272;5.136;2022-09-06T03:13:53;101531.38;;;20.59;77.14
64200;BME280;50516;52.272;5.136;2022-09-06T03:16:18;101537.94;;;20.63;76.72
64200;BME280;50516;52.272;5.136;2022-09-06T03:18:44;101541.03;;;20.61;76.48
64200;BME280;50516;52.272;5.136;2022-09-06T03:21:11;101535.47;;;20.61;76.61
64200;BME280;50516;52.272;5.136;2022-09-06T03:23:36;101545.19;;;20.64;76.15
64200;BME280;50516;52.272;5.136;2022-09-06T03:26:04;101549.88;;;20.55;76.61
64200;BME280;50516;52.272;5.136;2022-09-06T03:28:30;101546.75;;;20.48;77.01
64200;BME280;50516;52.272;5.136;2022-09-06T03:30:55;101543.63;;;20.49;77.02
64200;BME280;50516;52.272;5.136;2022-09-06T03:33:21;101541.19;;;20.48;77.10
64200;BME280;50516;52.272;5.136;2022-09-06T03:38:17;101531.97;;;20.47;76.98
64200;BME280;50516;52.272;5.136;2022-09-06T03:40:46;101537.56;;;20.47;76.67
64200;BME280;50516;52.272;5.136;2022-09-06T03:43:12;101536.56;;;20.43;76.60
64200;BME280;50516;52.272;5.136;2022-09-06T03:45:38;101533.78;;;20.43;76.53
64200;BME280;50516;52.272;5.136;2022-09-06T03:48:03;101540.00;;;20.40;76.44
64200;BME280;50516;52.272;5.136;2022-09-06T03:50:29;101529.97;;;20.39;76.35
64200;BME280;50516;52.272;5.136;2022-09-06T03:52:54;101532.59;;;20.35;76.35
64200;BME280;50516;52.272;5.136;2022-09-06T03:55:19;101544.88;;;20.34;76.37
64200;BME280;50516;52.272;5.136;2022-09-06T03:57:45;101545.69;;;20.26;76.44
64200;BME280;50516;52.272;5.136;2022-09-06T04:00:10;101546.31;;;20.23;76.59
64200;BME280;50516;52.272;5.136;2022-09-06T04:02:36;101548.94;;;20.19;76.67
64200;BME280;50516;52.272;5.136;2022-09-06T04:05:01;101551.72;;;20.19;76.53
64200;BME280;50516;52.272;5.136;2022-09-06T04:07:27;101549.25;;;20.18;76.75
64200;BME280;50516;52.272;5.136;2022-09-06T04:09:52;101550.69;;;20.15;76.59
64200;BME280;50516;52.272;5.136;2022-09-06T04:12:18;101543.50;;;20.14;76.81
64200;BME280;50516;52.272;5.136;2022-09-06T04:14:43;101551.16;;;20.09;77.08
64200;BME280;50516;52.272;5.136;2022-09-06T04:17:11;101544.91;;;20.03;77.06
64200;BME280;50516;52.272;5.136;2022-09-06T04:19:38;101545.22;;;20.01;77.36
64200;BME280;50516;52.272;5.136;2022-09-06T04:22:04;101569.94;;;19.94;77.73
64200;BME280;50516;52.272;5.136;2022-09-06T04:24:29;101582.75;;;19.95;78.18
64200;BME280;50516;52.272;5.136;2022-09-06T04:26:55;101579.00;;;20.00;77.84
64200;BME280;50516;52.272;5.136;2022-09-06T04:29:20;101596.34;;;19.97;78.01
64200;BME280;50516;52.272;5.136;2022-09-06T04:31:45;101592.38;;;19.89;78.66
64200;BME280;50516;52.272;5.136;2022-09-06T04:34:11;101581.59;;;19.96;78.33
64200;BME280;50516;52.272;5.136;2022-09-06T04:36:36;101577.03;;;20.00;78.06
64200;BME280;50516;52.272;5.136;2022-09-06T04:39:01;101581.16;;;20.03;78.04
64200;BME280;50516;52.272;5.136;2022-09-06T04:41:27;101597.50;;;19.96;78.11
64200;BME280;50516;52.272;5.136;2022-09-06T04:43:53;101599.78;;;19.94;78.40
64200;BME280;50516;52.272;5.136;2022-09-06T04:46:20;101615.56;;;19.98;78.38
64200;BME280;50516;52.272;5.136;2022-09-06T04:48:46;101607.88;;;20.04;78.01
64200;BME280;50516;52.272;5.136;2022-09-06T04:51:12;101612.31;;;20.05;77.96
64200;BME280;50516;52.272;5.136;2022-09-06T04:53:37;101596.72;;;20.04;77.97
64200;BME280;50516;52.272;5.136;2022-09-06T04:56:02;101597.25;;;20.06;77.94
64200;BME280;50516;52.272;5.136;2022-09-06T04:58:28;101602.81;;;20.06;77.91
64200;BME280;50516;52.272;5.136;2022-09-06T05:00:53;101606.25;;;20.03;78.26
64200;BME280;50516;52.272;5.136;2022-09-06T05:03:19;101606.88;;;20.00;78.41
64200;BME280;50516;52.272;5.136;2022-09-06T05:05:44;101605.53;;;19.97;78.61
64200;BME280;50516;52.272;5.136;2022-09-06T05:08:10;101611.41;;;19.96;78.46
64200;BME280;50516;52.272;5.136;2022-09-06T05:10:35;101608.78;;;19.91;78.81
64200;BME280;50516;52.272;5.136;2022-09-06T05:13:00;101601.75;;;19.93;78.60
64200;BME280;50516;52.272;5.136;2022-09-06T05:15:26;101600.41;;;19.91;78.61
64200;BME280;50516;52.272;5.136;2022-09-06T05:17:51;101599.78;;;19.94;78.48
64200;BME280;50516;52.272;5.136;2022-09-06T05:20:17;101609.63;;;19.91;78.48
64200;BME280;50516;52.272;5.136;2022-09-06T05:22:50;101594.03;;;19.90;78.50
64200;BME280;50516;52.272;5.136;2022-09-06T05:25:19;101589.25;;;19.91;78.18
64200;BME280;50516;52.272;5.136;2022-09-06T05:27:44;101587.81;;;19.93;77.94
64200;BME280;50516;52.272;5.136;2022-09-06T05:30:10;101590.28;;;19.95;77.92
64200;BME280;50516;52.272;5.136;2022-09-06T05:32:36;101593.56;;;19.97;77.47
64200;BME280;50516;52.272;5.136;2022-09-06T05:35:02;101583.06;;;19.94;77.53
64200;BME280;50516;52.272;5.136;2022-09-06T05:37:30;101584.06;;;19.98;77.51
64200;BME280;50516;52.272;5.136;2022-09-06T05:39:55;101575.19;;;19.96;77.62
64200;BME280;50516;52.272;5.136;2022-09-06T05:42:24;101576.84;;;19.97;77.34
64200;BME280;50516;52.272;5.136;2022-09-06T05:44:49;101570.63;;;20.00;77.53
64200;BME280;50516;52.272;5.136;2022-09-06T05:47:14;101579.03;;;20.09;77.37
64200;BME280;50516;52.272;5.136;2022-09-06T05:49:40;101576.72;;;20.02;77.47
64200;BME280;50516;52.272;5.136;2022-09-06T05:52:05;101566.91;;;20.04;77.59
64200;BME280;50516;52.272;5.136;2022-09-06T05:54:34;101573.16;;;20.10;77.64
64200;BME280;50516;52.272;5.136;2022-09-06T05:56:59;101574.84;;;20.20;77.16
64200;BME280;50516;52.272;5.136;2022-09-06T05:59:27;101573.56;;;20.26;76.90
64200;BME280;50516;52.272;5.136;2022-09-06T06:01:53;101577.69;;;20.29;76.48
64200;BME280;50516;52.272;5.136;2022-09-06T06:04:20;101581.47;;;20.33;76.44
64200;BME280;50516;52.272;5.136;2022-09-06T06:06:51;101591.16;;;20.67;75.25
64200;BME280;50516;52.272;5.136;2022-09-06T06:09:16;101588.25;;;20.89;74.33
64200;BME280;50516;52.272;5.136;2022-09-06T06:11:42;101588.78;;;21.09;73.72
64200;BME280;50516;52.272;5.136;2022-09-06T06:14:08;101591.44;;;21.23;73.47
64200;BME280;50516;52.272;5.136;2022-09-06T06:16:33;101590.31;;;21.24;73.50
64200;BME280;50516;52.272;5.136;2022-09-06T06:18:59;101590.31;;;21.24;73.36
64200;BME280;50516;52.272;5.136;2022-09-06T06:21:32;101588.00;;;21.34;73.33
64200;BME280;50516;52.272;5.136;2022-09-06T06:24:02;101576.38;;;21.50;72.93
64200;BME280;50516;52.272;5.136;2022-09-06T06:26:30;101574.22;;;21.64;72.69
64200;BME280;50516;52.272;5.136;2022-09-06T06:28:56;101572.88;;;21.79;71.67
64200;BME280;50516;52.272;5.136;2022-09-06T06:31:25;101567.78;;;21.90;70.82
64200;BME280;50516;52.272;5.136;2022-09-06T06:33:51;101554.91;;;21.98;71.03
64200;BME280;50516;52.272;5.136;2022-09-06T06:36:19;101558.66;;;22.11;70.78
64200;BME280;50516;52.272;5.136;2022-09-06T06:38:48;101558.34;;;22.12;70.62
64200;BME280;50516;52.272;5.136;2022-09-06T06:41:24;101570.69;;;22.11;70.85
64200;BME280;50516;52.272;5.136;2022-09-06T06:43:51;101565.56;;;22.31;70.66
64200;BME280;50516;52.272;5.136;2022-09-06T06:46:17;101573.91;;;22.39;70.11
64200;BME280;50516;52.272;5.136;2022-09-06T06:48:44;101573.22;;;22.51;69.56
64200;BME280;50516;52.272;5.136;2022-09-06T06:51:11;101573.50;;;22.58;69.46
64200;BME280;50516;52.272;5.136;2022-09-06T06:53:37;101572.19;;;22.56;68.72
64200;BME280;50516;52.272;5.136;2022-09-06T06:56:20;101575.44;;;22.67;68.68
64200;BME280;50516;52.272;5.136;2022-09-06T06:58:48;101566.50;;;22.73;68.82
64200;BME280;50516;52.272;5.136;2022-09-06T07:01:15;101559.44;;;22.67;68.07
64200;BME280;50516;52.272;5.136;2022-09-06T07:03:40;101555.34;;;22.65;69.00
64200;BME280;50516;52.272;5.136;2022-09-06T07:06:06;101561.41;;;22.75;68.36
64200;BME280;50516;52.272;5.136;2022-09-06T07:08:33;101553.38;;;22.65;68.27
64200;BME280;50516;52.272;5.136;2022-09-06T07:10:59;101552.81;;;22.81;67.98
64200;BME280;50516;52.272;5.136;2022-09-06T07:13:24;101544.88;;;22.83;67.46
64200;BME280;50516;52.272;5.136;2022-09-06T07:15:50;101545.41;;;22.76;67.58
64200;BME280;50516;52.272;5.136;2022-09-06T07:18:16;101544.66;;;22.88;67.51
64200;BME280;50516;52.272;5.136;2022-09-06T07:20:41;101543.22;;;22.82;67.22
64200;BME280;50516;52.272;5.136;2022-09-06T07:23:06;101543.66;;;22.92;67.03
64200;BME280;50516;52.272;5.136;2022-09-06T07:25:32;101542.50;;;22.93;66.20
64200;BME280;50516;52.272;5.136;2022-09-06T07:28:05;101546.94;;;22.94;67.09
64200;BME280;50516;52.272;5.136;2022-09-06T07:30:34;101552.19;;;22.96;66.62
64200;BME280;50516;52.272;5.136;2022-09-06T07:33:01;101547.69;;;23.04;66.15
64200;BME280;50516;52.272;5.136;2022-09-06T07:35:26;101537.84;;;22.97;66.80
64200;BME280;50516;52.272;5.136;2022-09-06T07:38:02;101536.94;;;23.14;66.18
64200;BME280;50516;52.272;5.136;2022-09-06T07:40:29;101535.75;;;23.15;65.93
64200;BME280;50516;52.272;5.136;2022-09-06T07:42:56;101535.03;;;23.27;65.56
64200;BME280;50516;52.272;5.136;2022-09-06T07:45:22;101531.88;;;23.29;65.61
64200;BME280;50516;52.272;5.136;2022-09-06T07:47:55;101542.53;;;23.36;65.36
64200;BME280;50516;52.272;5.136;2022-09-06T07:50:23;101541.84;;;23.39;65.14
64200;BME280;50516;52.272;5.136;2022-09-06T07:52:48;101542.53;;;23.36;64.79
64200;BME280;50516;52.272;5.136;2022-09-06T07:55:14;101545.00;;;23.37;65.64
64200;BME280;50516;52.272;5.136;2022-09-06T07:57:40;101547.94;;;23.41;65.44
64200;BME280;50516;52.272;5.136;2022-09-06T08:00:05;101543.28;;;23.45;65.17
64200;BME280;50516;52.272;5.136;2022-09-06T08:02:32;101550.91;;;23.57;64.86
64200;BME280;50516;52.272;5.136;2022-09-06T08:04:57;101544.63;;;23.60;64.37
64200;BME280;50516;52.272;5.136;2022-09-06T08:07:22;101541.00;;;23.59;64.60
64200;BME280;50516;52.272;5.136;2022-09-06T08:09:49;101531.75;;;23.59;64.11
64200;BME280;50516;52.272;5.136;2022-09-06T08:12:16;101523.53;;;23.41;63.84
64200;BME280;50516;52.272;5.136;2022-09-06T08:14:41;101520.78;;;23.54;63.75
64200;BME280;50516;52.272;5.136;2022-09-06T08:17:06;101531.81;;;23.71;62.70
64200;BME280;50516;52.272;5.136;2022-09-06T08:19:32;101519.69;;;23.79;62.99
64200;BME280;50516;52.272;5.136;2022-09-06T08:21:58;101519.84;;;23.83;62.19
64200;BME280;50516;52.272;5.136;2022-09-06T08:24:24;101508.31;;;23.97;62.09
64200;BME280;50516;52.272;5.136;2022-09-06T08:26:49;101516.97;;;24.04;61.46
64200;BME280;50516;52.272;5.136;2022-09-06T08:29:15;101507.84;;;24.07;61.72
64200;BME280;50516;52.272;5.136;2022-09-06T08:31:42;101513.91;;;23.97;61.20
64200;BME280;50516;52.272;5.136;2022-09-06T08:34:09;101510.16;;;23.93;61.56
64200;BME280;50516;52.272;5.136;2022-09-06T08:36:37;101512.03;;;24.01;60.24
64200;BME280;50516;52.272;5.136;2022-09-06T08:39:04;101511.34;;;23.92;61.54
64200;BME280;50516;52.272;5.136;2022-09-06T08:41:35;101515.53;;;23.85;60.61
64200;BME280;50516;52.272;5.136;2022-09-06T08:44:06;101514.00;;;23.88;60.80
64200;BME280;50516;52.272;5.136;2022-09-06T08:46:38;101508.31;;;24.09;60.91
64200;BME280;50516;52.272;5.136;2022-09-06T08:49:05;101509.97;;;24.22;59.86
64200;BME280;50516;52.272;5.136;2022-09-06T08:52:06;101515.22;;;24.36;59.95
64200;BME280;50516;52.272;5.136;2022-09-06T08:54:36;101512.53;;;24.52;59.31
64200;BME280;50516;52.272;5.136;2022-09-06T08:57:14;101507.06;;;24.68;58.90
64200;BME280;50516;52.272;5.136;2022-09-06T08:59:45;101504.25;;;24.81;58.62
64200;BME280;50516;52.272;5.136;2022-09-06T09:02:12;101506.72;;;24.70;58.11
64200;BME280;50516;52.272;5.136;2022-09-06T09:04:46;101502.50;;;24.64;59.09
64200;BME280;50516;52.272;5.136;2022-09-06T09:09:50;101510.44;;;24.49;59.15
64200;BME280;50516;52.272;5.136;2022-09-06T09:12:20;101501.81;;;24.67;58.62
64200;BME280;50516;52.272;5.136;2022-09-06T09:14:50;101497.19;;;24.87;58.62
64200;BME280;50516;52.272;5.136;2022-09-06T09:17:23;101497.41;;;24.94;58.45
64200;BME280;50516;52.272;5.136;2022-09-06T09:19:49;101501.75;;;24.91;58.09
64200;BME280;50516;52.272;5.136;2022-09-06T09:22:17;101489.06;;;25.10;57.32
64200;BME280;50516;52.272;5.136;2022-09-06T09:24:43;101495.41;;;25.07;57.93
64200;BME280;50516;52.272;5.136;2022-09-06T09:27:10;101498.19;;;25.07;57.22
64200;BME280;50516;52.272;5.136;2022-09-06T09:32:38;101486.31;;;25.26;56.22
64200;BME280;50516;52.272;5.136;2022-09-06T09:35:31;101486.72;;;25.12;55.86
64200;BME280;50516;52.272;5.136;2022-09-06T09:38:08;101487.66;;;25.16;56.99
64200;BME280;50516;52.272;5.136;2022-09-06T09:40:53;101487.13;;;25.55;55.01
64200;BME280;50516;52.272;5.136;2022-09-06T09:43:24;101490.81;;;25.43;55.91
64200;BME280;50516;52.272;5.136;2022-09-06T09:48:38;101489.59;;;25.56;55.30
64200;BME280;50516;52.272;5.136;2022-09-06T09:51:21;101494.50;;;25.59;55.68
64200;BME280;50516;52.272;5.136;2022-09-06T09:53:54;101505.81;;;25.47;55.77
64200;BME280;50516;52.272;5.136;2022-09-06T09:59:16;101497.50;;;25.66;55.90
64200;BME280;50516;52.272;5.136;2022-09-06T10:01:42;101500.84;;;25.72;56.17
64200;BME280;50516;52.272;5.136;2022-09-06T10:04:11;101501.94;;;25.67;55.74
64200;BME280;50516;52.272;5.136;2022-09-06T10:06:41;101496.69;;;25.82;55.45
64200;BME280;50516;52.272;5.136;2022-09-06T10:09:33;101502.88;;;25.72;56.23
64200;BME280;50516;52.272;5.136;2022-09-06T10:12:00;101491.19;;;25.85;55.19
64200;BME280;50516;52.272;5.136;2022-09-06T10:14:31;101492.78;;;26.15;54.81
64200;BME280;50516;52.272;5.136;2022-09-06T10:16:58;101490.91;;;26.38;54.20
64200;BME280;50516;52.272;5.136;2022-09-06T10:19:43;101485.66;;;26.37;53.98
64200;BME280;50516;52.272;5.136;2022-09-06T10:25:09;101487.63;;;26.52;54.11
64200;BME280;50516;52.272;5.136;2022-09-06T10:28:29;101489.16;;;26.66;53.52
64200;BME280;50516;52.272;5.136;2022-09-06T10:30:31;101487.03;;;26.78;52.69
64200;BME280;50516;52.272;5.136;2022-09-06T10:33:04;101490.03;;;27.05;52.36
64200;BME280;50516;52.272;5.136;2022-09-06T10:35:36;101490.78;;;27.02;52.73
64200;BME280;50516;52.272;5.136;2022-09-06T10:43:55;101516.13;;;26.83;53.08
64200;BME280;50516;52.272;5.136;2022-09-06T10:46:24;101500.09;;;26.87;52.93
64200;BME280;50516;52.272;5.136;2022-09-06T10:48:51;101505.44;;;26.92;52.93
64200;BME280;50516;52.272;5.136;2022-09-06T10:56:54;101507.31;;;26.84;53.16
64200;BME280;50516;52.272;5.136;2022-09-06T10:59:54;101525.13;;;26.72;53.15
64200;BME280;50516;52.272;5.136;2022-09-06T11:05:04;101526.16;;;26.64;53.68
64200;BME280;50516;52.272;5.136;2022-09-06T11:07:32;101528.97;;;26.64;54.00
64200;BME280;50516;52.272;5.136;2022-09-06T11:10:09;101522.41;;;26.60;54.13
64200;BME280;50516;52.272;5.136;2022-09-06T11:12:42;101534.22;;;26.50;54.72
64200;BME280;50516;52.272;5.136;2022-09-06T11:15:13;101535.22;;;26.73;54.24
64200;BME280;50516;52.272;5.136;2022-09-06T11:17:48;101534.50;;;26.60;54.62
64200;BME280;50516;52.272;5.136;2022-09-06T11:20:26;101536.06;;;26.42;54.88
64200;BME280;50516;52.272;5.136;2022-09-06T11:25:33;101549.50;;;26.17;56.04
64200;BME280;50516;52.272;5.136;2022-09-06T11:28:09;101553.56;;;26.51;55.20
64200;BME280;50516;52.272;5.136;2022-09-06T11:30:42;101551.81;;;26.94;53.71
64200;BME280;50516;52.272;5.136;2022-09-06T11:35:41;101540.13;;;26.76;54.09
64200;BME280;50516;52.272;5.136;2022-09-06T11:38:16;101543.88;;;26.65;54.43
64200;BME280;50516;52.272;5.136;2022-09-06T11:40:45;101545.69;;;26.57;54.24
64200;BME280;50516;52.272;5.136;2022-09-06T11:43:41;101548.50;;;26.57;54.50
64200;BME280;50516;52.272;5.136;2022-09-06T11:46:07;101541.22;;;26.56;55.30
64200;BME280;50516;52.272;5.136;2022-09-06T11:48:45;101540.78;;;26.54;53.91
64200;BME280;50516;52.272;5.136;2022-09-06T11:51:30;101543.66;;;26.57;54.52
64200;BME280;50516;52.272;5.136;2022-09-06T11:56:27;101535.59;;;26.72;54.01
64200;BME280;50516;52.272;5.136;2022-09-06T11:59:00;101537.41;;;26.64;54.79
64200;BME280;50516;52.272;5.136;2022-09-06T12:06:29;101546.84;;;26.40;54.80
64200;BME280;50516;52.272;5.136;2022-09-06T12:08:56;101545.13;;;26.51;54.46
64200;BME280;50516;52.272;5.136;2022-09-06T12:11:35;101548.03;;;26.71;54.43
64200;BME280;50516;52.272;5.136;2022-09-06T12:27:55;101538.13;;;26.77;55.35
64200;BME280;50516;52.272;5.136;2022-09-06T12:30:42;101545.03;;;26.80;55.08
64200;BME280;50516;52.272;5.136;2022-09-06T12:35:53;101519.06;;;26.54;55.00
64200;BME280;50516;52.272;5.136;2022-09-06T12:38:35;101518.53;;;26.49;55.68
64200;BME280;50516;52.272;5.136;2022-09-06T12:41:05;101520.25;;;26.53;55.46
64200;BME280;50516;52.272;5.136;2022-09-06T12:43:32;101518.88;;;26.63;55.48
64200;BME280;50516;52.272;5.136;2022-09-06T12:46:03;101523.16;;;26.57;55.06
64200;BME280;50516;52.272;5.136;2022-09-06T12:48:33;101515.88;;;26.40;54.24
64200;BME280;50516;52.272;5.136;2022-09-06T12:51:09;101519.13;;;26.58;55.01
64200;BME280;50516;52.272;5.136;2022-09-06T12:53:54;101525.41;;;26.67;55.03
64200;BME280;50516;52.272;5.136;2022-09-06T12:56:25;101523.50;;;26.71;54.84
64200;BME280;50516;52.272;5.136;2022-09-06T12:58:51;101518.41;;;26.77;55.05
64200;BME280;50516;52.272;5.136;2022-09-06T13:01:35;101519.59;;;26.60;54.79
64200;BME280;50516;52.272;5.136;2022-09-06T13:04:08;101507.16;;;26.45;54.98
64200;BME280;50516;52.272;5.136;2022-09-06T13:06:43;101503.44;;;26.57;54.85
64200;BME280;50516;52.272;5.136;2022-09-06T13:09:13;101505.72;;;26.35;54.96
64200;BME280;50516;52.272;5.136;2022-09-06T13:11:43;101500.72;;;26.29;55.61
64200;BME280;50516;52.272;5.136;2022-09-06T13:14:11;101500.66;;;26.25;55.40
64200;BME280;50516;52.272;5.136;2022-09-06T13:16:43;101493.38;;;26.24;55.04
64200;BME280;50516;52.272;5.136;2022-09-06T13:21:41;101489.38;;;26.25;55.69
64200;BME280;50516;52.272;5.136;2022-09-06T13:26:58;101481.75;;;26.26;54.38
64200;BME280;50516;52.272;5.136;2022-09-06T13:29:32;101464.13;;;26.29;55.06
64200;BME280;50516;52.272;5.136;2022-09-06T13:32:00;101460.31;;;26.21;55.40
64200;BME280;50516;52.272;5.136;2022-09-06T13:34:31;101449.81;;;26.18;55.53
64200;BME280;50516;52.272;5.136;2022-09-06T13:37:08;101455.16;;;26.23;55.13
64200;BME280;50516;52.272;5.136;2022-09-06T13:39:45;101458.06;;;26.11;54.55
64200;BME280;50516;52.272;5.136;2022-09-06T13:44:52;101451.88;;;26.21;54.04
64200;BME280;50516;52.272;5.136;2022-09-06T13:47:17;101447.81;;;26.18;54.43
64200;BME280;50516;52.272;5.136;2022-09-06T13:49:43;101445.38;;;26.17;54.65
64200;BME280;50516;52.272;5.136;2022-09-06T13:52:08;101449.81;;;26.18;54.99
64200;BME280;50516;52.272;5.136;2022-09-06T13:54:34;101449.34;;;26.16;54.96
64200;BME280;50516;52.272;5.136;2022-09-06T13:57:00;101460.81;;;26.23;54.28
64200;BME280;50516;52.272;5.136;2022-09-06T13:59:28;101453.53;;;26.22;54.39
64200;BME280;50516;52.272;5.136;2022-09-06T14:02:06;101459.88;;;26.19;53.95
64200;BME280;50516;52.272;5.136;2022-09-06T14:04:34;101449.28;;;26.12;53.81
64200;BME280;50516;52.272;5.136;2022-09-06T14:07:01;101458.28;;;26.18;54.10
64200;BME280;50516;52.272;5.136;2022-09-06T14:09:27;101448.81;;;26.26;54.04
64200;BME280;50516;52.272;5.136;2022-09-06T14:11:52;101462.88;;;26.26;53.90
64200;BME280;50516;52.272;5.136;2022-09-06T14:14:17;101468.78;;;26.21;54.13
64200;BME280;50516;52.272;5.136;2022-09-06T14:16:44;101470.84;;;26.40;54.09
64200;BME280;50516;52.272;5.136;2022-09-06T14:19:10;101469.31;;;26.42;53.99
64200;BME280;50516;52.272;5.136;2022-09-06T14:21:36;101459.34;;;26.29;54.07
64200;BME280;50516;52.272;5.136;2022-09-06T14:24:01;101475.88;;;26.15;54.12
64200;BME280;50516;52.272;5.136;2022-09-06T14:26:28;101469.16;;;26.19;53.50
64200;BME280;50516;52.272;5.136;2022-09-06T14:28:53;101481.69;;;26.22;53.11
64200;BME280;50516;52.272;5.136;2022-09-06T14:31:21;101480.38;;;26.35;52.54
64200;BME280;50516;52.272;5.136;2022-09-06T14:33:47;101479.66;;;26.38;52.67
64200;BME280;50516;52.272;5.136;2022-09-06T14:36:16;101485.19;;;26.51;52.95
64200;BME280;50516;52.272;5.136;2022-09-06T14:38:43;101494.69;;;26.62;52.02
64200;BME280;50516;52.272;5.136;2022-09-06T14:41:09;101471.00;;;26.63;52.54
64200;BME280;50516;52.272;5.136;2022-09-06T14:43:35;101475.81;;;26.47;52.10
64200;BME280;50516;52.272;5.136;2022-09-06T14:46:12;101481.94;;;26.49;52.79
64200;BME280;50516;52.272;5.136;2022-09-06T14:48:39;101469.25;;;26.74;52.97